Time;durP1;ratioP1;P1;durP2;ratioP2;P2;SDS_P1;SDS_P2;PMS_P1;PMS_P2;Temp;Humidity;BMP_temperature;BMP_pressure;BME280_temperature;BME280_humidity;BME280_pressure;Samples;Min_cycle;Max_cycle;Signal;HPM_P1;HPM_P2
2022/06/05 00:01:37;;;;;;;4.90;3.42;;;23.90;56.70;;;;;;5096295;28;20028;-47
2022/06/05 00:04:11;;;;;;;4.63;3.50;;;23.90;56.80;;;;;;5095352;28;20018;-50
2022/06/05 00:06:43;;;;;;;4.78;3.17;;;23.90;57.00;;;;;;5094741;28;20012;-49
2022/06/05 00:09:21;;;;;;;7.63;3.50;;;23.90;57.10;;;;;;5094872;28;20062;-50
2022/06/05 00:12:08;;;;;;;4.70;3.10;;;23.90;57.40;;;;;;5094432;28;20024;-49
2022/06/05 00:14:37;;;;;;;7.13;4.25;;;23.90;57.50;;;;;;5094190;28;20091;-49
2022/06/05 00:17:09;;;;;;;5.78;3.90;;;23.90;57.50;;;;;;5094358;28;20095;-47
2022/06/05 00:19:38;;;;;;;5.13;3.40;;;23.90;57.60;;;;;;5093948;28;20016;-49
2022/06/05 00:22:05;;;;;;;4.55;3.15;;;23.90;57.40;;;;;;5076520;28;20490;-52
2022/06/05 00:24:32;;;;;;;4.70;3.55;;;23.90;57.60;;;;;;5094221;28;20069;-50
2022/06/05 00:27:02;;;;;;;5.05;3.38;;;23.90;57.80;;;;;;5094278;28;20020;-52
2022/06/05 00:29:30;;;;;;;8.50;4.00;;;23.90;57.90;;;;;;5076113;28;20107;-53
2022/06/05 00:32:04;;;;;;;4.25;3.40;;;23.90;57.90;;;;;;5094204;28;20016;-51
2022/06/05 00:34:37;;;;;;;6.65;4.18;;;23.90;58.10;;;;;;5076997;28;20098;-49
2022/06/05 00:37:09;;;;;;;4.03;3.38;;;23.80;58.10;;;;;;5095397;28;20038;-52
2022/06/05 00:39:54;;;;;;;5.45;3.63;;;23.90;58.20;;;;;;5076849;28;20024;-47
2022/06/05 00:42:22;;;;;;;5.13;4.20;;;23.90;58.30;;;;;;5079423;28;20016;-52
2022/06/05 00:44:54;;;;;;;5.60;4.40;;;23.80;58.40;;;;;;5060171;28;20016;-49
2022/06/05 00:47:28;;;;;;;6.32;3.65;;;23.80;58.40;;;;;;5094726;28;20012;-52
2022/06/05 00:50:18;;;;;;;6.03;3.58;;;23.80;58.40;;;;;;5093707;28;20049;-50
2022/06/05 00:52:47;;;;;;;5.28;3.85;;;23.90;58.60;;;;;;5094570;28;20028;-51
2022/06/05 00:55:13;;;;;;;6.72;3.88;;;23.80;58.50;;;;;;5094485;28;20051;-50
2022/06/05 00:57:39;;;;;;;5.07;3.67;;;23.80;58.50;;;;;;5094668;28;20016;-50
2022/06/05 01:00:16;;;;;;;6.20;3.70;;;23.80;58.50;;;;;;5094252;28;20028;-50
2022/06/05 01:02:44;;;;;;;5.70;3.65;;;23.80;58.60;;;;;;5093742;28;20023;-49
2022/06/05 01:05:10;;;;;;;4.97;3.35;;;23.80;58.60;;;;;;5059023;28;20588;-50
2022/06/05 01:07:36;;;;;;;6.03;3.90;;;23.80;58.50;;;;;;5093486;28;20107;-48
2022/06/05 01:10:02;;;;;;;7.07;3.92;;;23.80;58.60;;;;;;5075608;28;20042;-50
2022/06/05 01:12:53;;;;;;;7.35;3.75;;;23.80;58.60;;;;;;5093018;28;20475;-49
2022/06/05 01:15:22;;;;;;;;;;;23.80;58.70;;;;;;5058737;28;20020;-48
2022/06/05 01:18:06;;;;;;;4.55;3.22;;;23.80;58.50;;;;;;5075007;28;19900;-50
2022/06/05 01:20:41;;;;;;;6.88;3.60;;;23.80;58.70;;;;;;5092876;28;20458;-49
2022/06/05 01:23:44;;;;;;;8.75;3.70;;;23.80;58.70;;;;;;5092996;28;20085;-49
2022/06/05 01:26:12;;;;;;;6.18;3.92;;;23.80;58.90;;;;;;5093218;28;20115;-48
2022/06/05 01:29:00;;;;;;;5.45;3.70;;;23.80;58.80;;;;;;5093245;28;20031;-47
2022/06/05 01:31:56;;;;;;;7.70;4.00;;;23.70;58.80;;;;;;5057613;28;20429;-47
2022/06/05 01:34:36;;;;;;;4.43;3.75;;;23.80;58.80;;;;;;5058479;28;20020;-48
2022/06/05 01:37:23;;;;;;;4.95;4.15;;;23.70;58.80;;;;;;5074986;28;20493;-49
2022/06/05 01:40:01;;;;;;;7.80;3.65;;;23.70;58.90;;;;;;5092775;28;20027;-48
2022/06/05 01:42:35;;;;;;;4.82;3.70;;;23.70;58.90;;;;;;5075534;28;20019;-50
2022/06/05 01:45:26;;;;;;;5.70;3.90;;;23.70;59.50;;;;;;5042593;28;20034;-53
2022/06/05 01:47:53;;;;;;;4.03;3.63;;;23.70;58.90;;;;;;5064136;28;20020;-51
2022/06/05 01:50:37;;;;;;;6.07;4.00;;;23.70;58.80;;;;;;5058259;28;20063;-51
2022/06/05 01:53:19;;;;;;;5.38;3.53;;;23.70;58.80;;;;;;5059034;28;20040;-53
2022/06/05 01:55:57;;;;;;;4.00;3.60;;;23.70;58.80;;;;;;5074710;28;20023;-49
2022/06/05 01:58:27;;;;;;;5.15;3.88;;;23.70;58.80;;;;;;5092887;28;20099;-53
2022/06/05 02:00:56;;;;;;;8.38;3.88;;;23.70;58.90;;;;;;5074600;28;20012;-53
2022/06/05 02:03:33;;;;;;;5.60;4.07;;;23.70;58.90;;;;;;5093033;28;20087;-54
2022/06/05 02:06:29;;;;;;;5.90;4.05;;;23.70;59.00;;;;;;5058464;28;20031;-53
2022/06/05 02:09:02;;;;;;;5.97;3.97;;;23.60;59.00;;;;;;5072798;28;20100;-51
2022/06/05 02:11:29;;;;;;;4.80;3.63;;;23.70;59.00;;;;;;5058808;28;20482;-52
2022/06/05 02:14:00;;;;;;;5.57;4.03;;;23.70;58.90;;;;;;5074653;28;20020;-53
2022/06/05 02:16:28;;;;;;;6.30;3.50;;;23.70;58.90;;;;;;5075578;28;20360;-52
2022/06/05 02:18:53;;;;;;;6.88;3.97;;;23.70;58.80;;;;;;5093616;28;20060;-52
2022/06/05 02:21:19;;;;;;;4.90;3.90;;;23.60;58.80;;;;;;5093696;28;20020;-55
2022/06/05 02:23:45;;;;;;;4.93;3.92;;;23.70;58.80;;;;;;5094556;28;20091;-54
2022/06/05 02:26:14;;;;;;;5.53;3.78;;;23.70;58.70;;;;;;5093330;28;20046;-53
2022/06/05 02:28:41;;;;;;;5.70;3.72;;;23.70;58.80;;;;;;5075598;28;20069;-52
2022/06/05 02:31:25;;;;;;;6.60;3.72;;;23.70;58.70;;;;;;5074959;28;20046;-49
2022/06/05 02:33:57;;;;;;;5.82;3.45;;;23.60;58.60;;;;;;5093010;28;20012;-47
2022/06/05 02:36:47;;;;;;;4.32;3.70;;;23.60;58.60;;;;;;5093750;28;20021;-51
2022/06/05 02:39:30;;;;;;;4.97;3.40;;;23.60;58.70;;;;;;5097043;28;20028;-51
2022/06/05 02:42:10;;;;;;;4.07;3.67;;;23.60;58.70;;;;;;5097045;28;20095;-50
2022/06/05 02:45:05;;;;;;;5.28;3.60;;;23.60;58.60;;;;;;5063637;28;20016;-51
2022/06/05 02:47:43;;;;;;;5.68;3.67;;;23.60;58.60;;;;;;5082070;28;20470;-52
2022/06/05 02:50:28;;;;;;;6.72;3.92;;;23.60;58.50;;;;;;5097538;28;20390;-54
2022/06/05 02:53:03;;;;;;;8.02;4.40;;;23.50;58.70;;;;;;5046391;28;20012;-52
2022/06/05 02:55:29;;;;;;;6.22;3.50;;;23.50;58.70;;;;;;5096985;28;20024;-53
2022/06/05 02:57:55;;;;;;;7.35;4.10;;;23.50;58.80;;;;;;5078474;28;20078;-52
2022/06/05 03:00:23;;;;;;;5.35;3.55;;;23.50;58.80;;;;;;5096155;28;20124;-47
2022/06/05 03:05:34;;;;;;;6.93;4.10;;;23.50;58.70;;;;;;5097524;28;20027;-53
2022/06/05 03:08:00;;;;;;;8.30;4.30;;;23.50;58.60;;;;;;5097119;28;20112;-52
2022/06/05 03:10:26;;;;;;;4.90;3.70;;;23.40;58.80;;;;;;5077862;28;20474;-50
2022/06/05 03:12:52;;;;;;;5.93;3.85;;;23.40;58.80;;;;;;5096163;28;20038;-47
2022/06/05 03:15:18;;;;;;;5.38;3.80;;;23.30;58.80;;;;;;5096013;28;20024;-48
2022/06/05 03:17:45;;;;;;;5.53;4.05;;;23.30;58.80;;;;;;5095474;28;20016;-49
2022/06/05 03:20:12;;;;;;;4.72;3.70;;;23.30;58.80;;;;;;5077628;28;20030;-47
2022/06/05 03:22:38;;;;;;;4.20;3.80;;;23.30;58.90;;;;;;5095090;28;20110;-48
2022/06/05 03:25:04;;;;;;;5.65;4.05;;;23.30;58.90;;;;;;5095575;28;20427;-48
2022/06/05 03:27:31;;;;;;;7.15;4.38;;;23.30;58.80;;;;;;5095404;28;20032;-48
2022/06/05 03:29:57;;;;;;;4.97;4.30;;;23.30;58.70;;;;;;5095470;28;20027;-48
2022/06/05 03:32:24;;;;;;;4.97;3.80;;;23.30;58.70;;;;;;5095502;28;20016;-49
2022/06/05 03:34:50;;;;;;;6.95;4.05;;;23.30;58.70;;;;;;5095189;28;20475;-47
2022/06/05 03:37:16;;;;;;;5.88;4.03;;;23.20;58.70;;;;;;5095105;28;20020;-48
2022/06/05 03:39:42;;;;;;;8.63;3.75;;;23.20;58.70;;;;;;5077298;28;20054;-48
2022/06/05 03:42:08;;;;;;;6.50;4.20;;;23.20;59.00;;;;;;5095295;28;20110;-47
2022/06/05 03:44:37;;;;;;;7.25;4.32;;;23.20;58.80;;;;;;5095296;28;20047;-48
2022/06/05 03:47:03;;;;;;;5.72;3.75;;;23.20;58.80;;;;;;5076961;28;20017;-47
2022/06/05 03:49:30;;;;;;;5.00;3.88;;;23.20;58.90;;;;;;5095022;28;20050;-48
2022/06/05 03:51:56;;;;;;;9.27;4.05;;;23.20;58.80;;;;;;5095416;28;20081;-49
2022/06/05 03:54:23;;;;;;;4.85;4.07;;;23.20;58.70;;;;;;5077185;28;20431;-49
2022/06/05 03:56:48;;;;;;;8.00;4.28;;;23.20;58.80;;;;;;5095503;28;20020;-53
2022/06/05 03:59:14;;;;;;;5.78;3.83;;;23.20;58.70;;;;;;5077357;28;20475;-53
2022/06/05 04:01:39;;;;;;;5.32;4.03;;;23.20;58.70;;;;;;5095728;28;20016;-49
2022/06/05 04:04:05;;;;;;;8.68;4.53;;;23.20;58.70;;;;;;5095238;28;20420;-51
2022/06/05 04:06:31;;;;;;;5.18;4.30;;;23.20;59.30;;;;;;5078098;28;20039;-57
2022/06/05 04:09:06;;;;;;;7.82;3.85;;;23.20;58.50;;;;;;5100265;28;20378;-52
2022/06/05 04:11:33;;;;;;;5.53;4.18;;;23.20;58.60;;;;;;5097713;28;20017;-50
2022/06/05 04:13:59;;;;;;;7.15;4.60;;;23.20;59.10;;;;;;5097765;28;20024;-49
2022/06/05 04:16:26;;;;;;;5.95;4.00;;;23.20;58.60;;;;;;5097536;28;20111;-51
2022/06/05 04:18:52;;;;;;;6.78;4.00;;;23.20;58.60;;;;;;5096259;28;20066;-51
2022/06/05 04:21:26;;;;;;;5.57;4.47;;;23.20;58.60;;;;;;5094780;28;20040;-50
2022/06/05 04:23:52;;;;;;;4.55;3.95;;;23.20;58.60;;;;;;5075958;28;20034;-51
2022/06/05 04:26:25;;;;;;;7.60;4.10;;;23.20;58.60;;;;;;5094367;28;20094;-49
2022/06/05 04:28:54;;;;;;;5.20;4.05;;;23.10;58.60;;;;;;5094109;28;20042;-50
2022/06/05 04:31:39;;;;;;;5.40;3.92;;;23.10;58.50;;;;;;5077338;28;20028;-49
2022/06/05 04:34:08;;;;;;;6.40;3.70;;;23.20;58.50;;;;;;5093773;28;20100;-49
2022/06/05 04:36:34;;;;;;;4.90;3.70;;;23.10;58.60;;;;;;5059070;28;20020;-50
2022/06/05 04:39:00;;;;;;;4.50;4.07;;;23.20;58.60;;;;;;5093889;28;20012;-52
2022/06/05 04:41:26;;;;;;;5.95;3.90;;;23.20;58.50;;;;;;5093699;28;20512;-49
2022/06/05 04:43:53;;;;;;;5.75;3.97;;;23.10;58.40;;;;;;5094015;28;20128;-49
2022/06/05 04:46:19;;;;;;;4.03;3.50;;;23.20;58.30;;;;;;5094033;28;20480;-50
2022/06/05 04:48:45;;;;;;;5.18;3.85;;;23.20;58.30;;;;;;5075841;28;20043;-49
2022/06/05 04:51:12;;;;;;;4.40;3.80;;;23.20;58.20;;;;;;5094223;28;20020;-49
2022/06/05 04:53:38;;;;;;;9.38;4.38;;;23.20;58.30;;;;;;5075731;28;20470;-50
2022/06/05 04:56:09;;;;;;;5.53;4.20;;;23.20;58.30;;;;;;5093656;28;20021;-47
2022/06/05 04:58:35;;;;;;;6.40;4.25;;;23.20;58.30;;;;;;5093161;28;20112;-52
2022/06/05 05:01:01;;;;;;;5.00;3.90;;;23.20;58.40;;;;;;5075598;28;20036;-51
2022/06/05 05:03:27;;;;;;;4.78;3.78;;;23.20;58.30;;;;;;5094091;28;20394;-53
2022/06/05 05:05:53;;;;;;;4.30;3.70;;;23.20;58.30;;;;;;5075782;28;20023;-51
2022/06/05 05:08:19;;;;;;;3.90;3.50;;;23.20;58.30;;;;;;5076272;28;20035;-49
2022/06/05 05:10:45;;;;;;;4.90;4.10;;;23.10;58.30;;;;;;5094205;28;20489;-52
2022/06/05 05:13:12;;;;;;;4.20;3.80;;;23.20;58.30;;;;;;5094707;28;20008;-50
2022/06/05 05:15:38;;;;;;;6.05;4.45;;;23.10;58.30;;;;;;5094121;28;20528;-52
2022/06/05 05:18:04;;;;;;;6.55;3.92;;;23.10;58.30;;;;;;5093185;28;20012;-53
2022/06/05 05:20:30;;;;;;;6.60;4.35;;;23.10;58.30;;;;;;5075719;28;20024;-50
2022/06/05 05:22:57;;;;;;;4.55;3.90;;;23.10;58.40;;;;;;5094780;28;20040;-49
2022/06/05 05:25:23;;;;;;;6.72;3.80;;;23.10;58.30;;;;;;5076334;28;20043;-49
2022/06/05 05:27:48;;;;;;;6.63;4.30;;;23.10;58.30;;;;;;5093517;28;20463;-49
2022/06/05 05:30:14;;;;;;;6.20;3.88;;;23.10;58.30;;;;;;5058409;28;20031;-50
2022/06/05 05:32:40;;;;;;;5.85;3.95;;;23.10;58.20;;;;;;5058332;28;20028;-48
2022/06/05 05:35:06;;;;;;;5.75;3.83;;;23.20;58.10;;;;;;5075119;28;20016;-47
2022/06/05 05:37:32;;;;;;;4.28;3.90;;;23.20;58.00;;;;;;5075347;28;20055;-47
2022/06/05 05:42:42;;;;;;;6.15;4.15;;;23.20;57.90;;;;;;5093188;28;20032;-49
2022/06/05 05:45:08;;;;;;;5.88;3.88;;;23.30;57.80;;;;;;5075316;28;20016;-49
2022/06/05 05:47:34;;;;;;;6.03;3.67;;;23.30;57.80;;;;;;5075375;28;20016;-50
2022/06/05 05:50:02;;;;;;;5.35;4.18;;;23.20;57.80;;;;;;5076074;28;20099;-51
2022/06/05 05:52:28;;;;;;;6.47;3.97;;;23.20;57.90;;;;;;5094341;28;20016;-52
2022/06/05 05:54:54;;;;;;;7.47;3.92;;;23.20;58.00;;;;;;5095209;28;20378;-48
2022/06/05 05:57:20;;;;;;;8.00;4.57;;;23.20;57.90;;;;;;5075770;28;20020;-47
2022/06/05 05:59:46;;;;;;;5.13;4.10;;;23.20;58.00;;;;;;5093113;28;20505;-48
2022/06/05 06:02:16;;;;;;;6.53;4.32;;;23.20;57.90;;;;;;5075209;28;20020;-47
2022/06/05 06:04:42;;;;;;;5.22;4.22;;;23.20;57.80;;;;;;5095385;28;20103;-52
2022/06/05 06:07:08;;;;;;;5.05;4.07;;;23.20;57.90;;;;;;5058810;28;20475;-48
2022/06/05 06:09:34;;;;;;;5.45;4.00;;;23.20;57.80;;;;;;5093443;28;20020;-48
2022/06/05 06:12:00;;;;;;;4.95;3.97;;;23.20;57.80;;;;;;5096597;28;20052;-47
2022/06/05 06:14:26;;;;;;;8.60;4.38;;;23.20;57.70;;;;;;5097242;28;20106;-48
2022/06/05 06:16:52;;;;;;;7.25;4.00;;;23.20;57.60;;;;;;5096510;28;20035;-47
2022/06/05 06:19:18;;;;;;;6.38;3.90;;;23.30;57.70;;;;;;5078364;28;20020;-49
2022/06/05 06:21:44;;;;;;;4.57;4.00;;;23.20;57.90;;;;;;5061370;28;20036;-47
2022/06/05 06:24:10;;;;;;;5.22;3.90;;;23.20;58.00;;;;;;5061420;28;20020;-47
2022/06/05 06:26:37;;;;;;;5.85;4.05;;;23.20;57.90;;;;;;5096603;28;20020;-49
2022/06/05 06:29:02;;;;;;;5.68;4.22;;;23.30;57.80;;;;;;5078402;28;20074;-49
2022/06/05 06:31:28;;;;;;;7.50;3.78;;;23.30;57.70;;;;;;5078711;28;20043;-47
2022/06/05 06:33:54;;;;;;;7.13;4.00;;;23.30;57.50;;;;;;5096442;28;20479;-48
2022/06/05 06:36:20;;;;;;;4.93;3.92;;;23.40;57.60;;;;;;5096992;28;20028;-51
2022/06/05 06:38:47;;;;;;;5.20;4.13;;;23.30;57.50;;;;;;5096491;28;20034;-49
2022/06/05 06:41:14;;;;;;;4.53;4.05;;;23.30;57.40;;;;;;5097000;28;20040;-49
2022/06/05 06:43:40;;;;;;;5.43;3.97;;;23.40;57.40;;;;;;5096691;28;20008;-48
2022/06/05 06:46:06;;;;;;;5.03;4.00;;;23.40;57.40;;;;;;5096671;28;20019;-51
2022/06/05 06:48:32;;;;;;;6.03;4.25;;;23.40;57.30;;;;;;5097117;28;20012;-52
2022/06/05 06:50:58;;;;;;;6.43;4.40;;;23.40;57.40;;;;;;5079138;28;20012;-54
2022/06/05 06:53:24;;;;;;;5.47;4.05;;;23.40;57.50;;;;;;5097059;28;20091;-49
2022/06/05 06:55:50;;;;;;;5.10;3.90;;;23.40;57.40;;;;;;5078430;28;20103;-57
2022/06/05 06:58:16;;;;;;;4.30;3.90;;;23.40;57.30;;;;;;5096411;28;20016;-54
2022/06/05 07:00:42;;;;;;;5.63;4.30;;;23.40;57.30;;;;;;5077727;28;20422;-56
2022/06/05 07:03:08;;;;;;;4.65;4.20;;;23.40;57.30;;;;;;5096034;28;20018;-54
2022/06/05 07:05:34;;;;;;;5.68;4.18;;;23.40;57.20;;;;;;5096486;28;20064;-57
2022/06/05 07:08:00;;;;;;;5.32;4.00;;;23.40;57.20;;;;;;5096199;28;20027;-56
2022/06/05 07:10:26;;;;;;;7.72;4.60;;;23.40;57.20;;;;;;5096463;28;20478;-56
2022/06/05 07:12:52;;;;;;;5.32;4.53;;;23.40;57.30;;;;;;5096715;28;20099;-56
2022/06/05 07:15:19;;;;;;;6.03;4.43;;;23.40;57.30;;;;;;5096167;28;20066;-56
2022/06/05 07:17:45;;;;;;;6.43;5.00;;;23.40;57.10;;;;;;5095831;28;20044;-55
2022/06/05 07:20:11;;;;;;;9.52;4.50;;;23.50;57.00;;;;;;5095958;28;20095;-55
2022/06/05 07:22:38;;;;;;;5.53;4.40;;;23.50;57.00;;;;;;5094534;28;20461;-56
2022/06/05 07:25:04;;;;;;;5.80;4.75;;;23.50;57.00;;;;;;5095242;28;20015;-55
2022/06/05 07:27:30;;;;;;;6.20;4.68;;;23.50;57.10;;;;;;5077378;28;20025;-55
2022/06/05 07:29:56;;;;;;;6.20;4.57;;;23.50;57.00;;;;;;5095237;28;20031;-55
2022/06/05 07:32:21;;;;;;;4.80;4.40;;;23.50;56.90;;;;;;5095115;28;20039;-55
2022/06/05 07:34:48;;;;;;;7.32;4.78;;;23.50;56.90;;;;;;5077134;28;20043;-56
2022/06/05 07:37:14;;;;;;;9.85;4.95;;;23.50;56.80;;;;;;5077209;28;20104;-55
2022/06/05 07:39:41;;;;;;;6.25;4.90;;;23.60;56.80;;;;;;5094794;28;20024;-54
2022/06/05 07:42:06;;;;;;;7.07;4.88;;;23.50;57.10;;;;;;5094945;28;20051;-56
2022/06/05 07:44:32;;;;;;;5.20;3.83;;;23.50;56.60;;;;;;5076695;28;20039;-54
2022/06/05 07:46:58;;;;;;;4.93;4.43;;;23.50;56.60;;;;;;5094773;28;20004;-55
2022/06/05 07:49:24;;;;;;;8.00;4.90;;;23.50;56.60;;;;;;5076694;28;20070;-55
2022/06/05 07:54:36;;;;;;;6.97;4.30;;;23.60;56.50;;;;;;5095236;28;20032;-55
2022/06/05 07:57:09;;;;;;;5.63;4.47;;;23.60;56.40;;;;;;5094662;28;20024;-55
2022/06/05 07:59:37;;;;;;;4.82;4.25;;;23.60;56.40;;;;;;5076868;28;20028;-55
2022/06/05 08:02:05;;;;;;;5.05;4.28;;;23.60;56.40;;;;;;5094772;28;20019;-57
2022/06/05 08:04:31;;;;;;;6.45;4.00;;;23.60;56.40;;;;;;5094418;28;20012;-56
2022/06/05 08:06:58;;;;;;;6.00;4.20;;;23.60;56.40;;;;;;5076377;28;20012;-54
2022/06/05 08:09:24;;;;;;;7.32;4.28;;;23.60;56.30;;;;;;5094556;28;20070;-55
2022/06/05 08:11:50;;;;;;;5.63;4.53;;;23.60;56.20;;;;;;5094541;28;20040;-56
2022/06/05 08:14:16;;;;;;;4.53;4.13;;;23.60;56.20;;;;;;5094461;28;20009;-56
2022/06/05 08:16:43;;;;;;;5.65;4.60;;;23.60;56.10;;;;;;5076329;28;20035;-55
2022/06/05 08:19:18;;;;;;;6.95;4.80;;;23.60;56.10;;;;;;5094219;28;20071;-55
2022/06/05 08:21:44;;;;;;;6.25;4.72;;;23.60;56.10;;;;;;5094170;28;20685;-55
2022/06/05 08:24:10;;;;;;;5.03;4.53;;;23.60;56.00;;;;;;5076333;28;20051;-56
2022/06/05 08:26:36;;;;;;;6.95;4.45;;;23.60;56.00;;;;;;5076321;28;20067;-55
2022/06/05 08:29:02;;;;;;;5.50;4.72;;;23.60;56.10;;;;;;5094189;28;20027;-55
2022/06/05 08:31:29;;;;;;;6.13;4.90;;;23.60;56.20;;;;;;5094274;28;20064;-55
2022/06/05 08:33:57;;;;;;;5.30;4.80;;;23.60;56.20;;;;;;5094398;28;20504;-55
2022/06/05 08:36:22;;;;;;;5.47;4.25;;;23.60;56.20;;;;;;5094095;28;20012;-55
2022/06/05 08:41:37;;;;;;;4.47;4.05;;;23.60;56.20;;;;;;5093826;28;20042;-55
2022/06/05 08:44:34;;;;;;;5.30;4.30;;;23.60;56.10;;;;;;5076842;28;20043;-55
2022/06/05 08:47:12;;;;;;;5.63;4.15;;;23.70;56.30;;;;;;5094415;28;20043;-54
2022/06/05 08:49:46;;;;;;;5.18;4.68;;;23.70;56.30;;;;;;5076081;28;20012;-54
2022/06/05 08:52:38;;;;;;;5.65;4.38;;;23.60;56.30;;;;;;5093716;28;20455;-52
2022/06/05 08:55:04;;;;;;;6.10;4.35;;;23.60;56.30;;;;;;5064354;28;20119;-56
2022/06/05 08:57:34;;;;;;;5.28;4.63;;;23.60;56.20;;;;;;5093612;28;20115;-55
2022/06/05 09:00:21;;;;;;;5.32;4.82;;;23.60;56.30;;;;;;5075953;28;20051;-55
2022/06/05 09:03:03;;;;;;;7.30;5.03;;;23.60;56.60;;;;;;5075661;28;20040;-55
2022/06/05 09:05:31;;;;;;;5.72;4.82;;;23.60;56.60;;;;;;5075270;28;20016;-55
2022/06/05 09:07:58;;;;;;;7.63;4.90;;;23.60;56.60;;;;;;5075899;28;20020;-56
2022/06/05 09:10:32;;;;;;;5.85;5.28;;;23.60;56.80;;;;;;5094804;28;20012;-54
2022/06/05 09:13:00;;;;;;;9.93;4.80;;;23.60;56.80;;;;;;5076270;28;20016;-56
2022/06/05 09:15:40;;;;;;;7.70;5.72;;;23.60;56.90;;;;;;5093936;28;20027;-56
2022/06/05 09:18:20;;;;;;;8.07;5.03;;;23.60;56.90;;;;;;5060800;28;20016;-56
2022/06/05 09:20:54;;;;;;;6.47;5.35;;;23.50;56.90;;;;;;5077855;28;20082;-55
2022/06/05 09:23:20;;;;;;;5.53;4.90;;;23.60;57.00;;;;;;5095068;28;20040;-59
2022/06/05 09:26:22;;;;;;;5.88;5.28;;;23.60;57.00;;;;;;5097148;28;20023;-58
2022/06/05 09:28:57;;;;;;;8.40;5.45;;;23.50;57.00;;;;;;5080998;28;20051;-57
2022/06/05 09:31:38;;;;;;;5.97;5.25;;;23.60;57.00;;;;;;5097708;28;20009;-57
2022/06/05 09:34:18;;;;;;;7.57;5.40;;;23.60;57.10;;;;;;5081727;28;20012;-58
2022/06/05 09:36:47;;;;;;;10.77;5.63;;;23.50;57.10;;;;;;5096391;28;20021;-57
2022/06/05 09:39:27;;;;;;;6.75;4.90;;;23.50;57.10;;;;;;5078078;28;20020;-57
2022/06/05 09:42:12;;;;;;;5.63;4.70;;;23.50;57.20;;;;;;5095607;28;20016;-57
2022/06/05 09:45:02;;;;;;;5.80;5.20;;;23.50;57.10;;;;;;5078082;28;20026;-58
2022/06/05 09:47:40;;;;;;;6.65;4.95;;;23.50;57.10;;;;;;5103384;28;20031;-54
2022/06/05 09:50:22;;;;;;;5.88;5.13;;;23.50;57.10;;;;;;5069593;28;20028;-56
2022/06/05 09:52:49;;;;;;;5.35;4.60;;;23.50;57.10;;;;;;5053766;28;20482;-56
2022/06/05 09:55:19;;;;;;;5.40;4.50;;;23.50;57.10;;;;;;5085325;28;20024;-57
2022/06/05 10:00:36;;;;;;;7.43;4.43;;;23.50;57.10;;;;;;5075726;28;20042;-53
2022/06/05 10:03:09;;;;;;;6.47;5.00;;;23.50;57.20;;;;;;5104549;28;20020;-58
2022/06/05 10:05:37;;;;;;;6.97;5.28;;;23.50;57.20;;;;;;5086310;28;20012;-56
2022/06/05 10:08:11;;;;;;;5.80;5.20;;;23.50;57.40;;;;;;5069230;28;20016;-56
2022/06/05 10:10:38;;;;;;;6.38;4.85;;;23.50;57.40;;;;;;5086696;28;20035;-60
2022/06/05 10:13:42;;;;;;;8.27;4.80;;;23.50;57.40;;;;;;5069884;28;20022;-57
2022/06/05 10:16:33;;;;;;;8.57;5.35;;;23.50;57.60;;;;;;5102020;28;20689;-58
2022/06/05 10:19:11;;;;;;;5.95;5.28;;;23.50;57.70;;;;;;5020395;28;20486;-57
2022/06/05 10:21:40;;;;;;;8.60;5.78;;;23.50;57.70;;;;;;5102027;28;20067;-56
2022/06/05 10:24:29;;;;;;;7.53;5.45;;;23.50;57.90;;;;;;5101517;28;20016;-54
2022/06/05 10:26:58;;;;;;;8.90;5.70;;;23.50;58.00;;;;;;5083456;28;20082;-58
2022/06/05 10:29:41;;;;;;;6.82;4.88;;;23.50;58.00;;;;;;5083736;28;20019;-55
2022/06/05 10:32:27;;;;;;;5.55;4.53;;;23.50;58.70;;;;;;5067562;28;20032;-54
2022/06/05 10:35:16;;;;;;;8.05;5.25;;;23.50;58.10;;;;;;5101040;28;20020;-55
2022/06/05 10:37:56;;;;;;;7.60;5.28;;;23.50;58.10;;;;;;5084200;28;20044;-56
2022/06/05 10:40:43;;;;;;;5.57;4.82;;;23.50;58.30;;;;;;5066521;28;20022;-52
2022/06/05 10:43:22;;;;;;;7.63;6.05;;;23.50;58.20;;;;;;5082973;28;20107;-53
2022/06/05 10:45:48;;;;;;;5.47;4.72;;;23.50;58.30;;;;;;5084374;28;20064;-57
2022/06/05 10:48:32;;;;;;;6.20;5.50;;;23.50;58.40;;;;;;5083209;28;20070;-57
2022/06/05 10:51:00;;;;;;;5.90;5.38;;;23.50;58.40;;;;;;5084533;28;20023;-54
2022/06/05 10:53:53;;;;;;;5.50;4.93;;;23.50;58.50;;;;;;5102068;28;20020;-59
2022/06/05 10:56:23;;;;;;;6.85;5.93;;;23.50;58.50;;;;;;5063983;28;20044;-56
2022/06/05 10:58:52;;;;;;;6.88;5.40;;;23.50;58.60;;;;;;5096892;28;20028;-54
2022/06/05 11:01:28;;;;;;;7.13;5.78;;;23.50;58.70;;;;;;5098563;28;20024;-62
2022/06/05 11:04:19;;;;;;;6.18;5.53;;;23.50;58.70;;;;;;5097894;28;20008;-56
2022/06/05 11:07:20;;;;;;;7.53;5.05;;;23.50;58.70;;;;;;5050272;28;20082;-56
2022/06/05 11:10:09;;;;;;;6.65;5.80;;;23.40;58.70;;;;;;5091943;28;20028;-59
2022/06/05 11:15:54;;;;;;;7.22;5.65;;;23.40;58.80;;;;;;5086117;28;20031;-58
2022/06/05 11:18:24;;;;;;;7.28;5.65;;;23.40;58.90;;;;;;5097083;28;20016;-62
2022/06/05 11:20:57;;;;;;;6.97;5.60;;;23.40;59.00;;;;;;5097471;28;20055;-57
2022/06/05 11:23:25;;;;;;;7.30;5.38;;;23.40;59.10;;;;;;5081452;28;20032;-52
2022/06/05 11:26:04;;;;;;;5.80;5.20;;;23.40;58.90;;;;;;5063768;28;20056;-56
2022/06/05 11:29:02;;;;;;;6.82;5.35;;;23.40;59.10;;;;;;5081049;28;20004;-58
2022/06/05 11:31:47;;;;;;;6.43;5.15;;;23.40;59.20;;;;;;5081437;28;20028;-57
2022/06/05 11:34:24;;;;;;;6.47;5.40;;;23.40;59.30;;;;;;5102890;28;20020;-56
2022/06/05 11:36:55;;;;;;;6.75;5.97;;;23.40;59.30;;;;;;5103499;28;20508;-57
2022/06/05 11:39:32;;;;;;;6.45;5.72;;;23.40;59.50;;;;;;5083749;28;20050;-57
2022/06/05 11:42:13;;;;;;;6.40;5.43;;;23.40;59.40;;;;;;5084057;28;20024;-58
2022/06/05 11:44:45;;;;;;;8.30;5.97;;;23.40;59.50;;;;;;5102209;28;20020;-57
2022/06/05 11:47:25;;;;;;;6.18;5.55;;;23.40;59.60;;;;;;5102459;28;20024;-59
2022/06/05 11:50:16;;;;;;;5.72;5.00;;;23.40;59.70;;;;;;5102357;28;20147;-57
2022/06/05 11:52:51;;;;;;;6.95;5.72;;;23.40;59.60;;;;;;5082024;28;20063;-57
2022/06/05 11:55:25;;;;;;;7.55;5.55;;;23.40;59.70;;;;;;5100060;28;20023;-57
2022/06/05 11:58:04;;;;;;;6.78;5.57;;;23.40;59.80;;;;;;5066836;28;20039;-56
2022/06/05 12:00:38;;;;;;;7.70;5.72;;;23.40;59.80;;;;;;5082921;28;20019;-57
2022/06/05 12:03:16;;;;;;;7.43;6.30;;;23.40;59.80;;;;;;5099840;28;20681;-57
2022/06/05 12:05:46;;;;;;;7.43;6.15;;;23.40;59.90;;;;;;5099614;28;20008;-57
2022/06/05 12:08:40;;;;;;;10.40;6.70;;;23.40;60.00;;;;;;5099717;28;20031;-58
2022/06/05 12:11:09;;;;;;;9.23;6.28;;;23.40;60.10;;;;;;5075903;28;20119;-58
2022/06/05 12:13:36;;;;;;;7.45;6.57;;;23.40;60.20;;;;;;5099394;28;20024;-58
2022/06/05 12:16:10;;;;;;;6.97;6.05;;;23.40;60.20;;;;;;5080585;28;20012;-56
2022/06/05 12:18:42;;;;;;;6.60;5.93;;;23.40;60.30;;;;;;5080636;28;20012;-55
2022/06/05 12:21:25;;;;;;;6.95;6.20;;;23.40;60.30;;;;;;5079007;28;20078;-55
2022/06/05 12:24:12;;;;;;;8.77;6.10;;;23.30;60.30;;;;;;5078946;28;20030;-54
2022/06/05 12:26:49;;;;;;;7.93;6.68;;;23.30;60.40;;;;;;5097552;28;20022;-56
2022/06/05 12:29:28;;;;;;;11.00;6.75;;;23.30;60.50;;;;;;5097478;28;20016;-57
2022/06/05 12:31:58;;;;;;;8.63;6.47;;;23.30;60.60;;;;;;5097287;28;20023;-52
2022/06/05 12:34:29;;;;;;;7.05;6.03;;;23.30;60.70;;;;;;5097442;28;20462;-57
2022/06/05 12:37:10;;;;;;;7.85;6.60;;;23.30;60.70;;;;;;5097917;28;20058;-56
2022/06/05 12:39:40;;;;;;;10.35;7.03;;;23.30;60.80;;;;;;5098252;28;20035;-57
2022/06/05 12:42:20;;;;;;;7.60;6.60;;;23.30;60.80;;;;;;5080144;28;20012;-57
2022/06/05 12:44:56;;;;;;;8.93;6.22;;;23.30;60.90;;;;;;5097826;28;20020;-57
2022/06/05 12:47:41;;;;;;;8.98;6.15;;;23.20;61.00;;;;;;5080443;28;20013;-57
2022/06/05 12:50:18;;;;;;;13.23;7.03;;;23.30;61.10;;;;;;5079695;28;20116;-57
2022/06/05 12:53:16;;;;;;;8.50;6.50;;;23.20;61.20;;;;;;5097629;28;20070;-55
2022/06/05 12:56:08;;;;;;;8.07;6.38;;;23.20;61.30;;;;;;5066171;28;20058;-51
2022/06/05 12:58:44;;;;;;;10.10;6.88;;;23.20;61.30;;;;;;5097151;28;20024;-55
2022/06/05 13:01:12;;;;;;;10.80;6.28;;;23.20;61.40;;;;;;5063047;28;20024;-57
2022/06/05 13:03:43;;;;;;;9.07;6.72;;;23.20;61.50;;;;;;5097546;28;20004;-57
2022/06/05 13:06:27;;;;;;;8.20;6.82;;;23.30;61.40;;;;;;5097306;28;20024;-55
2022/06/05 13:08:57;;;;;;;9.00;6.80;;;23.30;61.50;;;;;;5095852;28;20020;-55
2022/06/05 13:11:23;;;;;;;9.27;6.90;;;23.30;61.50;;;;;;5078667;28;20055;-57
2022/06/05 13:13:58;;;;;;;7.18;6.50;;;23.30;61.40;;;;;;5096811;28;20013;-58
2022/06/05 13:16:52;;;;;;;10.25;7.30;;;23.30;61.50;;;;;;5097411;28;20016;-57
2022/06/05 13:19:25;;;;;;;11.07;7.05;;;23.30;61.50;;;;;;5097585;28;20024;-57
2022/06/05 13:22:10;;;;;;;8.85;7.95;;;23.30;61.50;;;;;;5096730;28;20059;-56
2022/06/05 13:24:38;;;;;;;8.65;6.88;;;23.30;61.60;;;;;;5097034;28;20012;-57
2022/06/05 13:27:17;;;;;;;8.35;7.55;;;23.30;61.60;;;;;;5096172;28;20499;-56
2022/06/05 13:29:54;;;;;;;7.63;6.93;;;23.30;61.70;;;;;;5061107;28;20012;-54
2022/06/05 13:32:33;;;;;;;7.43;6.63;;;23.30;61.70;;;;;;5096500;28;20016;-54